Time;durP1;ratioP1;P1;durP2;ratioP2;P2;SDS_P1;SDS_P2;PMS_P1;PMS_P2;Temp;Humidity;BMP_temperature;BMP_pressure;BME280_temperature;BME280_humidity;BME280_pressure;Samples;Min_cycle;Max_cycle;Signal;HPM_P1;HPM_P2
2022/02/26 00:02:12;;;;;;;2.53;1.60;;;18.00;58.90;;;;;;5054974;28;20029;-69
2022/02/26 00:04:38;;;;;;;3.97;1.40;;;18.00;58.90;;;;;;5055104;28;20060;-69
2022/02/26 00:07:03;;;;;;;2.50;1.38;;;17.90;59.90;;;;;;5054593;28;20070;-69
2022/02/26 00:09:29;;;;;;;2.15;1.10;;;18.00;59.00;;;;;;5053815;28;20114;-69
2022/02/26 00:11:55;;;;;;;2.40;1.45;;;18.00;59.00;;;;;;5054677;28;20112;-69
2022/02/26 00:14:20;;;;;;;1.77;1.35;;;18.00;59.00;;;;;;5054809;28;20032;-69
2022/02/26 00:16:46;;;;;;;2.05;1.30;;;18.00;59.10;;;;;;5053496;28;20029;-69
2022/02/26 00:19:12;;;;;;;4.43;1.92;;;18.00;59.10;;;;;;5054706;28;20025;-69
2022/02/26 00:21:38;;;;;;;3.70;1.27;;;18.00;59.10;;;;;;5054436;28;20021;-69
2022/02/26 00:24:04;;;;;;;2.15;1.40;;;18.00;59.10;;;;;;5053061;28;20032;-69
2022/02/26 00:26:30;;;;;;;3.22;1.40;;;17.90;59.00;;;;;;5036905;28;20032;-69
2022/02/26 00:28:56;;;;;;;4.43;1.50;;;18.00;59.10;;;;;;5053196;28;20029;-69
2022/02/26 00:31:22;;;;;;;1.73;1.30;;;18.00;59.10;;;;;;5062895;28;20031;-69
2022/02/26 00:33:47;;;;;;;1.63;1.20;;;17.90;59.20;;;;;;5094074;28;20118;-69
2022/02/26 00:36:13;;;;;;;1.90;1.33;;;18.00;59.10;;;;;;5094651;28;20054;-69
2022/02/26 00:38:38;;;;;;;2.17;1.35;;;17.90;59.10;;;;;;5094719;28;20024;-69
2022/02/26 00:41:04;;;;;;;2.13;1.25;;;17.90;59.10;;;;;;5094420;28;20062;-69
2022/02/26 00:43:30;;;;;;;2.70;1.20;;;17.90;59.20;;;;;;5082213;28;20017;-69
2022/02/26 00:45:56;;;;;;;2.72;1.58;;;17.90;59.20;;;;;;5074097;28;20025;-69
2022/02/26 00:49:46;;;;;;;4.63;1.38;;;17.90;59.20;;;;;;5074164;28;20386;-69
2022/02/26 00:51:10;;;;;;;2.30;1.30;;;17.90;59.20;;;;;;5059353;28;20037;-69
2022/02/26 00:53:35;;;;;;;2.65;1.27;;;17.90;59.20;;;;;;5073764;28;20046;-69
2022/02/26 00:56:01;;;;;;;2.25;1.55;;;17.90;59.20;;;;;;5074022;28;20024;-69
2022/02/26 00:58:27;;;;;;;1.20;1.10;;;17.90;59.30;;;;;;5056311;28;20032;-69
2022/02/26 01:00:52;;;;;;;2.78;1.52;;;17.90;59.30;;;;;;5073718;28;20017;-69
2022/02/26 01:03:18;;;;;;;2.45;1.42;;;17.90;59.30;;;;;;5056317;28;20035;-69
2022/02/26 01:05:43;;;;;;;1.20;1.10;;;17.90;59.30;;;;;;5073962;28;20062;-69
2022/02/26 01:08:09;;;;;;;2.00;1.30;;;17.90;59.30;;;;;;5073503;28;20028;-69
2022/02/26 01:10:35;;;;;;;4.00;1.58;;;17.90;59.30;;;;;;5039394;28;20114;-69
2022/02/26 01:13:00;;;;;;;1.73;1.25;;;17.90;59.40;;;;;;5073415;28;20491;-69
2022/02/26 01:15:26;;;;;;;1.90;1.48;;;17.80;59.30;;;;;;5039331;28;20032;-69
2022/02/26 01:17:52;;;;;;;1.88;1.48;;;17.80;59.30;;;;;;5073524;28;20028;-69
2022/02/26 01:20:18;;;;;;;1.90;1.50;;;17.80;59.40;;;;;;5055570;28;20389;-69
2022/02/26 01:22:43;;;;;;;2.65;1.40;;;17.80;59.30;;;;;;5038887;28;20012;-69
2022/02/26 01:25:09;;;;;;;1.52;1.20;;;17.80;59.40;;;;;;5055432;28;20024;-69
2022/02/26 01:27:39;;;;;;;1.90;1.13;;;17.80;59.40;;;;;;5073474;28;20020;-69
2022/02/26 01:30:08;;;;;;;2.83;1.40;;;17.80;59.40;;;;;;5073313;28;20025;-69
2022/02/26 01:32:33;;;;;;;1.75;1.33;;;17.80;59.50;;;;;;5062943;28;20503;-69
2022/02/26 01:34:59;;;;;;;1.58;1.23;;;17.80;59.50;;;;;;5052981;28;20029;-69
2022/02/26 01:37:24;;;;;;;2.28;1.40;;;17.80;59.50;;;;;;5053030;28;20025;-69
2022/02/26 01:39:50;;;;;;;2.40;1.30;;;17.80;59.50;;;;;;5053063;28;20033;-69
2022/02/26 01:42:17;;;;;;;1.92;1.35;;;17.80;59.60;;;;;;5051325;28;20389;-69
2022/02/26 01:44:51;;;;;;;3.08;1.10;;;17.70;59.50;;;;;;5032238;28;20029;-69
2022/02/26 01:47:17;;;;;;;1.52;1.20;;;17.80;59.60;;;;;;5032996;28;20029;-69
2022/02/26 01:49:42;;;;;;;1.23;1.00;;;17.80;59.60;;;;;;5033223;28;20025;-69
2022/02/26 01:52:08;;;;;;;1.70;1.30;;;17.70;59.50;;;;;;5031527;28;20029;-69
2022/02/26 01:54:34;;;;;;;2.13;1.45;;;17.80;59.70;;;;;;5033165;28;20160;-69
2022/02/26 01:57:00;;;;;;;1.52;1.23;;;17.70;59.60;;;;;;5031677;28;20053;-69
2022/02/26 01:59:25;;;;;;;1.70;1.40;;;17.70;59.60;;;;;;5032889;28;20119;-69
2022/02/26 02:01:51;;;;;;;3.00;1.48;;;17.70;59.60;;;;;;5031730;28;20029;-69
2022/02/26 02:04:17;;;;;;;1.45;1.27;;;17.70;59.70;;;;;;5031722;28;20028;-69
2022/02/26 02:06:43;;;;;;;1.48;1.10;;;17.70;59.70;;;;;;5031327;28;20492;-69
2022/02/26 02:09:08;;;;;;;2.05;1.00;;;17.70;59.70;;;;;;5031345;28;20037;-70
2022/02/26 02:11:34;;;;;;;1.30;1.20;;;17.60;59.70;;;;;;5032684;28;20192;-69
2022/02/26 02:14:00;;;;;;;1.38;1.10;;;17.70;59.80;;;;;;5032591;28;20037;-69
2022/02/26 02:16:26;;;;;;;1.58;1.25;;;17.70;59.80;;;;;;5031435;28;20075;-69
2022/02/26 02:18:52;;;;;;;3.05;1.42;;;17.70;59.80;;;;;;5031536;28;20029;-69
2022/02/26 02:21:18;;;;;;;2.55;1.13;;;17.70;59.90;;;;;;5030997;28;20395;-69
2022/02/26 02:23:44;;;;;;;0.98;0.98;;;17.70;59.80;;;;;;5032650;28;20053;-69
2022/02/26 02:26:10;;;;;;;1.73;1.20;;;17.60;59.80;;;;;;5031336;28;20049;-69
2022/02/26 02:28:37;;;;;;;1.45;1.02;;;17.60;59.80;;;;;;5031405;28;20025;-69
2022/02/26 02:31:03;;;;;;;1.20;1.02;;;17.60;59.80;;;;;;5037602;28;20506;-69
2022/02/26 02:33:28;;;;;;;1.90;1.20;;;17.60;59.90;;;;;;5081927;28;20060;-69
2022/02/26 02:35:54;;;;;;;1.27;1.02;;;17.60;59.90;;;;;;5092435;28;20036;-69
2022/02/26 02:38:19;;;;;;;2.97;1.02;;;17.60;59.90;;;;;;5092477;28;20055;-69
2022/02/26 02:40:47;;;;;;;1.48;1.15;;;17.60;60.00;;;;;;5092654;28;20039;-69
2022/02/26 02:43:13;;;;;;;1.65;1.17;;;17.60;59.90;;;;;;5064530;28;20013;-69
2022/02/26 02:45:39;;;;;;;2.03;0.95;;;17.60;60.00;;;;;;5072244;28;20028;-69
2022/02/26 02:48:04;;;;;;;3.88;1.10;;;17.60;60.00;;;;;;5020958;28;20439;-69
2022/02/26 02:50:30;;;;;;;1.90;1.23;;;17.60;60.00;;;;;;5072594;28;20592;-69
2022/02/26 02:52:56;;;;;;;1.02;0.93;;;17.60;60.00;;;;;;5037697;28;20028;-69
2022/02/26 02:55:22;;;;;;;1.50;1.13;;;17.50;60.00;;;;;;5072176;28;20501;-69
2022/02/26 02:57:48;;;;;;;1.65;1.20;;;17.50;60.00;;;;;;5037599;28;20028;-69
2022/02/26 03:00:14;;;;;;;1.77;0.75;;;17.60;60.10;;;;;;5054142;28;20070;-69
2022/02/26 03:02:41;;;;;;;2.33;1.10;;;17.50;60.00;;;;;;5071915;28;20078;-69
2022/02/26 03:05:07;;;;;;;1.25;1.00;;;17.50;60.10;;;;;;5054227;28;20056;-69
2022/02/26 03:07:33;;;;;;;1.67;1.10;;;17.50;60.10;;;;;;5072111;28;20063;-69
2022/02/26 03:09:58;;;;;;;1.40;1.30;;;17.50;60.10;;;;;;5071936;28;20463;-69
2022/02/26 03:12:24;;;;;;;1.27;1.00;;;17.50;60.10;;;;;;5071884;28;20486;-69
2022/02/26 03:14:50;;;;;;;1.45;0.98;;;17.50;60.10;;;;;;5071835;28;20025;-69
2022/02/26 03:17:15;;;;;;;2.30;1.00;;;17.50;60.20;;;;;;5071690;28;20487;-69
2022/02/26 03:19:41;;;;;;;1.58;1.30;;;17.50;60.20;;;;;;5054121;28;20052;-69
2022/02/26 03:22:06;;;;;;;1.00;0.90;;;17.50;60.20;;;;;;5071789;28;20056;-69
2022/02/26 03:24:32;;;;;;;1.30;0.82;;;17.50;60.20;;;;;;5071904;28;20449;-69
2022/02/26 03:26:58;;;;;;;1.38;1.20;;;17.50;60.20;;;;;;5071737;28;20029;-69
2022/02/26 03:29:24;;;;;;;1.10;0.85;;;17.50;60.30;;;;;;5071761;28;20100;-69
2022/02/26 03:31:50;;;;;;;1.60;1.20;;;17.50;60.30;;;;;;5064535;28;20036;-69
2022/02/26 03:34:16;;;;;;;1.13;1.02;;;17.40;60.30;;;;;;5053783;28;20087;-69
2022/02/26 03:36:41;;;;;;;2.28;1.02;;;17.50;60.30;;;;;;5071783;28;20032;-69
2022/02/26 03:39:07;;;;;;;0.82;0.82;;;17.50;60.40;;;;;;5071512;28;20146;-69
2022/02/26 03:41:33;;;;;;;1.60;0.90;;;17.50;60.30;;;;;;5071612;28;20016;-69
2022/02/26 03:43:58;;;;;;;1.80;1.38;;;17.40;60.30;;;;;;5057810;28;20040;-69
2022/02/26 03:46:24;;;;;;;1.65;1.00;;;17.40;60.30;;;;;;5054820;28;20028;-69
2022/02/26 03:48:52;;;;;;;2.20;1.40;;;17.40;60.30;;;;;;5055337;28;20032;-69
2022/02/26 03:51:18;;;;;;;2.70;1.08;;;17.40;60.30;;;;;;5055205;28;20040;-69
2022/02/26 03:53:44;;;;;;;3.15;1.17;;;17.40;60.30;;;;;;5054002;28;20017;-69
2022/02/26 03:56:09;;;;;;;2.38;1.20;;;17.40;60.40;;;;;;5055205;28;20479;-69
2022/02/26 03:58:35;;;;;;;1.13;0.90;;;17.40;60.40;;;;;;5055027;28;20028;-69
2022/02/26 04:01:00;;;;;;;1.17;1.02;;;17.40;60.50;;;;;;5054790;28;20060;-69
2022/02/26 04:03:26;;;;;;;1.52;1.00;;;17.40;60.40;;;;;;5055078;28;20191;-69
2022/02/26 04:05:52;;;;;;;0.93;0.90;;;17.40;60.50;;;;;;5054974;28;20108;-69
2022/02/26 04:08:17;;;;;;;2.70;1.30;;;17.40;60.50;;;;;;5054780;28;20025;-69
2022/02/26 04:10:43;;;;;;;1.10;1.00;;;17.40;60.60;;;;;;5067114;28;20032;-69
2022/02/26 04:13:09;;;;;;;2.67;1.38;;;17.40;60.50;;;;;;5068838;28;20032;-69
2022/02/26 04:15:34;;;;;;;2.13;1.10;;;17.40;60.60;;;;;;5073855;28;20064;-69
2022/02/26 04:18:00;;;;;;;1.35;1.20;;;17.40;60.60;;;;;;5062356;28;20025;-69
2022/02/26 04:20:25;;;;;;;1.35;1.20;;;17.40;60.70;;;;;;5057498;28;20029;-69
2022/02/26 04:22:51;;;;;;;2.03;1.00;;;17.40;60.60;;;;;;5074571;28;20490;-69
2022/02/26 04:25:17;;;;;;;1.70;1.02;;;17.40;60.60;;;;;;5072956;28;20487;-69
2022/02/26 04:27:43;;;;;;;1.95;0.98;;;17.40;60.60;;;;;;5059267;28;20012;-69
2022/02/26 04:30:09;;;;;;;1.85;0.90;;;17.40;60.70;;;;;;5047830;28;20521;-69
2022/02/26 04:32:36;;;;;;;1.70;1.30;;;17.40;60.70;;;;;;5068200;28;20067;-69
2022/02/26 04:35:02;;;;;;;3.63;1.13;;;17.40;60.70;;;;;;5071969;28;20028;-69
2022/02/26 04:37:27;;;;;;;1.40;1.00;;;17.40;60.70;;;;;;5042953;28;20836;-69
2022/02/26 04:39:53;;;;;;;2.95;1.40;;;17.40;60.70;;;;;;5088528;28;20107;-70
2022/02/26 04:42:19;;;;;;;1.05;0.88;;;17.40;60.70;;;;;;5081381;28;20024;-69
2022/02/26 04:44:44;;;;;;;1.73;0.90;;;17.40;60.70;;;;;;5086884;28;20021;-69
2022/02/26 04:47:11;;;;;;;2.25;1.00;;;17.40;60.70;;;;;;5077254;28;20143;-69
2022/02/26 04:49:37;;;;;;;1.20;1.10;;;17.40;60.80;;;;;;5072377;28;20078;-70
2022/02/26 04:52:03;;;;;;;1.48;1.10;;;17.40;60.70;;;;;;5081408;28;20559;-69
2022/02/26 04:54:29;;;;;;;4.00;1.27;;;17.40;60.70;;;;;;5064561;28;20036;-70
2022/02/26 04:56:55;;;;;;;1.33;1.00;;;17.40;60.70;;;;;;5070225;28;20505;-70
2022/02/26 04:59:20;;;;;;;1.27;0.82;;;17.40;60.70;;;;;;5058556;28;20029;-70
2022/02/26 05:01:46;;;;;;;1.80;1.17;;;17.40;60.70;;;;;;5089134;28;20087;-70
2022/02/26 05:04:11;;;;;;;1.88;0.95;;;17.40;60.70;;;;;;5063934;28;20024;-70
2022/02/26 05:06:37;;;;;;;1.73;1.17;;;17.40;60.70;;;;;;5081976;28;20095;-70
2022/02/26 05:09:03;;;;;;;2.17;1.10;;;17.40;60.80;;;;;;5088935;28;20084;-69
2022/02/26 05:11:28;;;;;;;2.90;1.00;;;17.40;60.80;;;;;;5076563;28;20406;-69
2022/02/26 05:13:54;;;;;;;3.42;1.30;;;17.40;60.80;;;;;;5087812;28;20032;-69
2022/02/26 05:16:19;;;;;;;2.25;1.33;;;17.40;60.90;;;;;;5064614;28;20490;-69
2022/02/26 05:18:45;;;;;;;1.33;0.90;;;17.40;60.90;;;;;;5080917;28;20025;-69
2022/02/26 05:21:11;;;;;;;2.47;1.10;;;17.30;60.90;;;;;;5089764;28;20558;-69
2022/02/26 05:23:36;;;;;;;3.53;1.00;;;17.40;60.90;;;;;;5076587;28;20448;-69
2022/02/26 05:26:02;;;;;;;5.15;1.10;;;17.30;60.90;;;;;;5086948;28;20495;-69
2022/02/26 05:28:28;;;;;;;6.32;1.10;;;17.30;60.90;;;;;;5064937;28;20024;-69
2022/02/26 05:30:53;;;;;;;4.57;1.15;;;17.30;60.90;;;;;;5084079;28;20020;-69
2022/02/26 05:33:19;;;;;;;3.55;1.25;;;17.30;60.90;;;;;;5076132;28;20133;-69
2022/02/26 05:35:44;;;;;;;6.60;1.30;;;17.30;60.90;;;;;;5071456;28;20048;-69
2022/02/26 05:38:10;;;;;;;1.77;1.10;;;17.30;61.00;;;;;;5062775;28;20031;-69
2022/02/26 05:40:36;;;;;;;2.25;1.08;;;17.30;61.00;;;;;;5064118;28;20477;-69
2022/02/26 05:43:02;;;;;;;3.42;1.00;;;17.30;61.00;;;;;;5078989;28;20021;-70
2022/02/26 05:45:27;;;;;;;1.25;0.90;;;17.30;61.00;;;;;;5089421;28;20027;-70
2022/02/26 05:47:53;;;;;;;2.63;1.10;;;17.30;61.00;;;;;;5077639;28;20020;-70
2022/02/26 05:50:18;;;;;;;1.48;1.13;;;17.30;61.10;;;;;;5084547;28;20021;-69
2022/02/26 05:52:44;;;;;;;1.38;0.90;;;17.30;61.00;;;;;;5085088;28;20474;-69
2022/02/26 05:55:10;;;;;;;2.15;0.90;;;17.30;61.00;;;;;;5077261;28;20066;-70
2022/02/26 05:57:35;;;;;;;0.80;0.75;;;17.30;61.00;;;;;;5070798;28;20024;-70
2022/02/26 06:00:01;;;;;;;2.20;1.10;;;17.30;61.10;;;;;;5060570;28;20073;-70
2022/02/26 06:02:27;;;;;;;3.25;1.20;;;17.30;61.10;;;;;;5048625;28;20086;-70
2022/02/26 06:04:52;;;;;;;6.40;1.50;;;17.30;61.10;;;;;;5085410;28;20103;-70
2022/02/26 06:07:18;;;;;;;1.40;0.85;;;17.30;61.10;;;;;;5075460;28;20104;-69
2022/02/26 06:09:43;;;;;;;2.47;1.05;;;17.30;61.10;;;;;;5089062;28;20055;-70
2022/02/26 06:12:09;;;;;;;2.92;0.90;;;17.30;61.20;;;;;;5078925;28;20444;-70
2022/02/26 06:14:35;;;;;;;2.30;0.95;;;17.30;61.20;;;;;;5081933;28;20031;-70
2022/02/26 06:17:00;;;;;;;1.63;1.02;;;17.30;61.20;;;;;;5068240;28;20113;-70
2022/02/26 06:19:26;;;;;;;2.38;1.08;;;17.30;61.20;;;;;;5075435;28;20031;-69
2022/02/26 06:21:52;;;;;;;2.20;0.90;;;17.30;61.20;;;;;;5088538;28;20048;-69
2022/02/26 06:24:17;;;;;;;0.95;0.70;;;17.30;61.20;;;;;;5080035;28;20099;-69
2022/02/26 06:26:43;;;;;;;2.80;1.20;;;17.30;61.20;;;;;;5046168;28;20483;-69
2022/02/26 06:29:09;;;;;;;1.77;0.90;;;17.30;61.30;;;;;;5086941;28;20031;-69
2022/02/26 06:31:34;;;;;;;0.93;0.80;;;17.20;61.20;;;;;;5082340;28;20043;-69
2022/02/26 06:34:00;;;;;;;1.08;0.70;;;17.30;61.30;;;;;;5077190;28;20081;-70
2022/02/26 06:36:26;;;;;;;2.40;0.88;;;17.20;61.20;;;;;;5083503;28;20033;-69
2022/02/26 06:38:51;;;;;;;2.47;0.93;;;17.20;61.30;;;;;;5084122;28;20020;-69
2022/02/26 06:41:17;;;;;;;1.92;0.88;;;17.20;61.20;;;;;;5076402;28;20099;-69
2022/02/26 06:43:43;;;;;;;3.17;1.30;;;17.20;61.30;;;;;;5068008;28;20121;-69
2022/02/26 06:46:08;;;;;;;1.00;0.80;;;17.20;61.30;;;;;;5074566;28;20058;-69
2022/02/26 06:48:34;;;;;;;2.45;0.73;;;17.20;61.30;;;;;;5092200;28;20024;-69
2022/02/26 06:51:00;;;;;;;2.03;0.80;;;17.20;61.30;;;;;;5074385;28;20057;-69
2022/02/26 06:53:26;;;;;;;1.50;1.00;;;17.20;61.30;;;;;;5092452;28;20024;-69
2022/02/26 06:55:51;;;;;;;1.27;0.60;;;17.20;61.30;;;;;;5074049;28;20034;-69
2022/02/26 06:58:17;;;;;;;1.35;0.80;;;17.20;61.40;;;;;;5092126;28;20021;-69
2022/02/26 07:00:43;;;;;;;2.03;0.90;;;17.20;61.40;;;;;;5073906;28;20031;-69
2022/02/26 07:03:08;;;;;;;1.10;0.90;;;17.20;61.40;;;;;;5092010;28;20539;-69
2022/02/26 07:05:34;;;;;;;2.00;0.75;;;17.10;61.40;;;;;;5092228;28;20059;-69
2022/02/26 07:08:00;;;;;;;1.35;0.80;;;17.10;61.40;;;;;;5092179;28;20056;-70
2022/02/26 07:10:26;;;;;;;3.55;0.63;;;17.10;61.40;;;;;;5091532;28;20070;-69
2022/02/26 07:12:52;;;;;;;1.30;0.73;;;17.10;61.40;;;;;;5074073;28;20020;-69
2022/02/26 07:15:18;;;;;;;1.38;0.88;;;17.10;61.40;;;;;;5084651;28;20487;-69
2022/02/26 07:17:43;;;;;;;1.17;0.85;;;17.10;61.40;;;;;;5075238;28;20059;-69
2022/02/26 07:20:09;;;;;;;3.03;0.90;;;17.10;61.50;;;;;;5072792;28;20443;-69
2022/02/26 07:22:35;;;;;;;1.92;0.77;;;17.10;61.50;;;;;;5067728;28;20028;-69
2022/02/26 07:25:01;;;;;;;0.82;0.70;;;17.10;61.50;;;;;;5082895;28;20042;-69
2022/02/26 07:27:26;;;;;;;6.05;1.08;;;17.10;61.50;;;;;;5092615;28;20505;-69
2022/02/26 07:29:52;;;;;;;2.55;1.08;;;17.10;61.50;;;;;;5079471;28;20012;-69
2022/02/26 07:32:17;;;;;;;1.77;1.00;;;17.20;61.60;;;;;;5085218;28;20125;-69
2022/02/26 07:34:43;;;;;;;3.00;0.90;;;17.10;61.50;;;;;;5095066;28;20400;-69
2022/02/26 07:37:09;;;;;;;1.67;0.70;;;17.10;61.50;;;;;;5095316;28;20123;-69
2022/02/26 07:39:34;;;;;;;1.40;0.50;;;17.10;61.50;;;;;;5078021;28;20027;-69
2022/02/26 07:42:00;;;;;;;1.30;0.82;;;17.10;61.50;;;;;;5091499;28;20032;-70
2022/02/26 07:44:25;;;;;;;3.45;0.82;;;17.10;61.50;;;;;;5087386;28;20028;-69
2022/02/26 07:46:51;;;;;;;2.90;1.35;;;17.10;61.60;;;;;;5086366;28;20424;-69
2022/02/26 07:49:17;;;;;;;1.00;0.80;;;17.10;61.60;;;;;;5080669;28;20078;-70
2022/02/26 07:51:42;;;;;;;1.65;0.80;;;17.10;61.60;;;;;;5091557;28;20028;-70
2022/02/26 07:54:08;;;;;;;2.20;0.73;;;17.10;61.60;;;;;;5079771;28;20032;-70
2022/02/26 07:56:33;;;;;;;2.05;0.65;;;17.10;61.70;;;;;;5086569;28;20075;-70
2022/02/26 07:58:59;;;;;;;4.60;1.13;;;17.10;61.70;;;;;;5087051;28;20043;-70
2022/02/26 08:01:25;;;;;;;1.30;0.68;;;17.10;61.70;;;;;;5079649;28;20036;-70
2022/02/26 08:03:50;;;;;;;2.42;0.65;;;17.10;61.70;;;;;;5091176;28;20016;-70
2022/02/26 08:06:16;;;;;;;1.95;1.00;;;17.10;61.70;;;;;;5080913;28;20047;-70
2022/02/26 08:08:42;;;;;;;2.22;0.70;;;17.10;61.70;;;;;;5085120;28;20104;-70
2022/02/26 08:11:07;;;;;;;2.55;0.65;;;17.10;61.80;;;;;;5087691;28;20163;-70
2022/02/26 08:13:33;;;;;;;0.95;0.80;;;17.10;61.70;;;;;;5078255;28;20025;-70
2022/02/26 08:15:58;;;;;;;2.10;0.73;;;17.00;61.70;;;;;;5091168;28;20031;-70
2022/02/26 08:18:24;;;;;;;3.28;0.98;;;17.10;61.80;;;;;;5081391;28;20024;-70
2022/02/26 08:20:50;;;;;;;2.28;0.80;;;17.00;61.70;;;;;;5084101;28;20025;-70
2022/02/26 08:23:15;;;;;;;2.80;0.77;;;17.10;61.80;;;;;;5088367;28;20020;-70
2022/02/26 08:25:41;;;;;;;1.27;0.77;;;17.10;61.80;;;;;;5077496;28;20042;-69
2022/02/26 08:28:06;;;;;;;2.30;1.08;;;17.00;61.80;;;;;;5072312;28;20031;-69
2022/02/26 08:30:32;;;;;;;1.50;0.80;;;17.00;61.70;;;;;;5075494;28;20028;-70
2022/02/26 08:32:58;;;;;;;1.83;1.00;;;17.00;61.80;;;;;;5076473;28;20040;-70
2022/02/26 08:35:25;;;;;;;3.22;0.82;;;17.00;61.80;;;;;;5094379;28;20020;-69
2022/02/26 08:37:50;;;;;;;2.97;1.00;;;17.00;61.90;;;;;;5059224;28;20025;-70
2022/02/26 08:40:16;;;;;;;2.03;1.00;;;17.00;61.90;;;;;;5071008;28;20123;-69
2022/02/26 08:42:42;;;;;;;1.67;0.77;;;17.00;61.80;;;;;;5077558;28;20058;-69
2022/02/26 08:45:08;;;;;;;1.58;0.70;;;17.10;61.90;;;;;;5086669;28;20031;-69
2022/02/26 08:47:34;;;;;;;2.10;0.90;;;17.00;61.80;;;;;;5060200;28;20092;-69
2022/02/26 08:50:00;;;;;;;1.15;0.63;;;17.00;61.90;;;;;;5090303;28;20119;-70
2022/02/26 08:52:26;;;;;;;1.63;0.77;;;17.00;61.90;;;;;;5062617;28;20016;-69
2022/02/26 08:54:52;;;;;;;1.92;1.00;;;17.00;61.90;;;;;;5083785;28;20028;-69
2022/02/26 08:57:17;;;;;;;1.83;0.82;;;17.00;61.90;;;;;;5087868;28;20562;-70
2022/02/26 08:59:43;;;;;;;2.60;0.80;;;17.00;61.90;;;;;;5058991;28;20035;-69
2022/02/26 09:02:09;;;;;;;1.17;0.75;;;17.00;61.90;;;;;;5089861;28;20095;-70
2022/02/26 09:04:35;;;;;;;1.80;0.90;;;17.00;61.90;;;;;;5063463;28;20016;-70
2022/02/26 09:07:01;;;;;;;2.00;0.98;;;17.00;62.00;;;;;;5082192;28;20078;-70
2022/02/26 09:09:27;;;;;;;1.73;0.70;;;17.00;62.00;;;;;;5070646;28;20103;-70
2022/02/26 09:11:53;;;;;;;3.42;0.80;;;17.00;62.00;;;;;;5076693;28;20033;-70
2022/02/26 09:14:19;;;;;;;0.82;0.63;;;17.00;62.00;;;;;;5088499;28;20025;-69
2022/02/26 09:16:45;;;;;;;1.33;0.90;;;17.00;62.00;;;;;;5082280;28;20105;-69
2022/02/26 09:19:11;;;;;;;1.45;0.93;;;17.00;62.00;;;;;;5081183;28;20024;-70
2022/02/26 09:21:37;;;;;;;1.48;0.85;;;17.00;62.00;;;;;;5071043;28;20504;-70
2022/02/26 09:24:02;;;;;;;1.13;0.70;;;17.00;62.00;;;;;;5076580;28;20374;-70
2022/02/26 09:26:28;;;;;;;2.47;1.00;;;17.00;62.00;;;;;;5068980;28;20488;-70
2022/02/26 09:28:54;;;;;;;2.60;0.88;;;17.00;62.10;;;;;;5082921;28;20489;-70
2022/02/26 09:31:19;;;;;;;2.00;0.63;;;17.00;62.10;;;;;;5053634;28;20036;-70
2022/02/26 09:33:46;;;;;;;2.67;0.63;;;17.00;62.10;;;;;;5092499;28;20526;-70
2022/02/26 09:36:11;;;;;;;1.75;0.80;;;17.00;62.10;;;;;;5058960;28;20020;-70
2022/02/26 09:38:38;;;;;;;3.17;0.82;;;17.00;62.10;;;;;;5067802;28;20221;-70
2022/02/26 09:41:04;;;;;;;1.45;0.93;;;17.00;62.10;;;;;;5048487;28;20012;-70
2022/02/26 09:43:30;;;;;;;1.02;0.70;;;17.00;62.10;;;;;;5055945;28;20020;-70
2022/02/26 09:45:56;;;;;;;2.90;1.00;;;17.00;62.10;;;;;;5058318;28;20387;-70
2022/02/26 09:48:22;;;;;;;0.75;0.75;;;17.00;62.10;;;;;;5069774;28;20038;-70
2022/02/26 09:50:49;;;;;;;0.50;0.45;;;17.00;62.20;;;;;;5063111;28;20019;-70
2022/02/26 09:53:15;;;;;;;3.75;0.80;;;17.00;62.20;;;;;;5063134;28;20047;-70
2022/02/26 09:55:41;;;;;;;1.65;0.90;;;17.00;62.20;;;;;;5070773;28;20073;-70
2022/02/26 09:58:07;;;;;;;1.10;0.80;;;17.00;62.20;;;;;;5058174;28;20017;-70
2022/02/26 10:00:32;;;;;;;1.23;0.85;;;17.00;62.20;;;;;;5086323;28;20021;-69
2022/02/26 10:02:58;;;;;;;0.95;0.75;;;17.00;62.20;;;;;;5082301;28;20502;-70
2022/02/26 10:05:24;;;;;;;2.15;0.93;;;16.90;62.10;;;;;;5061181;28;20475;-69
2022/02/26 10:07:52;;;;;;;1.17;0.80;;;16.90;62.20;;;;;;5088959;28;20016;-70
2022/02/26 10:10:20;;;;;;;2.65;0.65;;;17.00;62.20;;;;;;5076627;28;20386;-70
2022/02/26 10:12:59;;;;;;;1.27;0.60;;;16.90;62.10;;;;;;5084727;28;20023;-70
2022/02/26 10:15:36;;;;;;;1.33;0.70;;;17.00;62.30;;;;;;5085774;28;20539;-70
2022/02/26 10:18:03;;;;;;;1.77;0.90;;;17.00;62.30;;;;;;5058121;28;20036;-70
2022/02/26 10:20:28;;;;;;;2.00;0.98;;;16.90;62.20;;;;;;5087099;28;20021;-70
2022/02/26 10:22:54;;;;;;;1.45;0.60;;;16.90;62.20;;;;;;5081327;28;20061;-70
2022/02/26 10:25:28;;;;;;;1.75;0.88;;;16.90;62.20;;;;;;5079864;28;20032;-70
2022/02/26 10:27:58;;;;;;;3.30;0.90;;;17.00;62.30;;;;;;5070807;28;20015;-70
2022/02/26 10:30:24;;;;;;;1.40;0.60;;;16.90;62.30;;;;;;5058255;28;20058;-70
2022/02/26 10:33:21;;;;;;;0.88;0.52;;;16.90;62.30;;;;;;5079810;28;20071;-69
2022/02/26 10:35:59;;;;;;;2.28;0.75;;;17.00;62.30;;;;;;5076322;28;20028;-70
2022/02/26 10:38:27;;;;;;;1.65;1.00;;;16.90;62.40;;;;;;5058821;28;20025;-70
2022/02/26 10:41:12;;;;;;;1.38;0.75;;;16.90;62.40;;;;;;5083677;28;20021;-70
2022/02/26 10:43:51;;;;;;;1.83;0.90;;;16.90;62.40;;;;;;5073621;28;20023;-69
2022/02/26 10:46:30;;;;;;;1.58;0.70;;;16.90;62.40;;;;;;5073408;28;20019;-69
2022/02/26 10:49:02;;;;;;;1.48;0.80;;;16.90;62.50;;;;;;5083124;28;20020;-69
2022/02/26 10:51:29;;;;;;;;;;;16.90;62.40;;;;;;5067698;28;20020;-70
2022/02/26 10:53:55;;;;;;;2.90;0.88;;;16.90;62.50;;;;;;5057280;28;19966;-70
2022/02/26 10:56:41;;;;;;;1.42;1.00;;;16.80;62.60;;;;;;5088431;28;20510;-70
2022/02/26 10:59:08;;;;;;;1.48;0.80;;;16.90;62.70;;;;;;5048937;28;20032;-70
2022/02/26 11:01:33;;;;;;;1.00;0.50;;;16.90;62.60;;;;;;5078018;28;20039;-70
2022/02/26 11:04:01;;;;;;;1.52;0.90;;;16.90;62.60;;;;;;5088467;28;20020;-70
2022/02/26 11:06:27;;;;;;;1.23;0.80;;;16.90;62.60;;;;;;5076280;28;20042;-69
2022/02/26 11:08:53;;;;;;;1.20;0.80;;;16.80;62.50;;;;;;5066125;28;20024;-69
2022/02/26 11:11:19;;;;;;;1.20;0.70;;;16.90;62.50;;;;;;5065282;28;20128;-69
2022/02/26 11:13:45;;;;;;;0.90;0.63;;;16.90;62.60;;;;;;5042428;28;20047;-69
2022/02/26 11:16:11;;;;;;;1.55;0.75;;;16.90;62.70;;;;;;5069977;28;20032;-69
2022/02/26 11:18:42;;;;;;;0.70;0.52;;;16.90;62.60;;;;;;5059773;28;20443;-69
2022/02/26 11:21:12;;;;;;;1.30;0.73;;;16.90;62.60;;;;;;5047471;28;20023;-69
2022/02/26 11:23:38;;;;;;;1.20;0.80;;;16.90;62.50;;;;;;5068071;28;20043;-68
2022/02/26 11:26:05;;;;;;;1.02;0.70;;;16.90;62.70;;;;;;5065688;28;20371;-69
2022/02/26 11:28:32;;;;;;;1.15;0.82;;;16.90;62.70;;;;;;5065489;28;20035;-69
2022/02/26 11:30:58;;;;;;;2.92;0.60;;;17.00;62.70;;;;;;5048874;28;20134;-69
2022/02/26 11:33:24;;;;;;;1.02;0.75;;;17.00;62.70;;;;;;5065031;28;20066;-68
2022/02/26 11:35:51;;;;;;;1.67;0.70;;;17.00;62.50;;;;;;5073837;28;20490;-69
2022/02/26 11:38:18;;;;;;;2.88;0.80;;;17.10;62.70;;;;;;5081287;28;20497;-69
2022/02/26 11:40:47;;;;;;;1.50;1.02;;;17.10;62.80;;;;;;5079757;28;20078;-68
2022/02/26 11:43:36;;;;;;;1.48;0.93;;;17.10;62.80;;;;;;5071460;28;20020;-68
2022/02/26 11:46:34;;;;;;;1.20;0.98;;;17.20;62.70;;;;;;5083171;28;20023;-69
2022/02/26 11:49:12;;;;;;;1.55;0.85;;;17.30;62.80;;;;;;5072984;28;20410;-68
2022/02/26 11:51:42;;;;;;;1.13;0.75;;;17.30;62.90;;;;;;5074630;28;20091;-68
2022/02/26 11:54:07;;;;;;;1.75;0.88;;;17.30;62.80;;;;;;5049164;28;20024;-68
2022/02/26 11:56:52;;;;;;;1.75;0.90;;;17.40;62.80;;;;;;5083517;28;20028;-68
2022/02/26 11:59:34;;;;;;;1.70;0.77;;;17.50;63.50;;;;;;5072117;28;20030;-70
2022/02/26 12:02:11;;;;;;;1.47;0.93;;;17.50;62.80;;;;;;5088380;28;20469;-70
2022/02/26 12:04:56;;;;;;;1.85;0.90;;;17.60;62.70;;;;;;5081732;28;20008;-70
2022/02/26 12:07:32;;;;;;;3.47;0.88;;;17.60;62.40;;;;;;5085258;28;20383;-70
2022/02/26 12:09:59;;;;;;;1.45;0.93;;;17.60;62.50;;;;;;5071608;28;20016;-70
2022/02/26 12:12:53;;;;;;;1.45;0.85;;;17.70;62.60;;;;;;5060818;28;20066;-70
2022/02/26 12:15:22;;;;;;;1.40;0.80;;;17.80;62.20;;;;;;5090363;28;20032;-70
2022/02/26 12:17:54;;;;;;;2.25;0.90;;;17.80;62.50;;;;;;5071068;28;20036;-70
2022/02/26 12:20:28;;;;;;;1.25;0.85;;;17.80;62.40;;;;;;5093024;28;20579;-70
2022/02/26 12:22:54;;;;;;;2.40;0.90;;;17.80;62.50;;;;;;5063149;28;20095;-70
2022/02/26 12:25:20;;;;;;;1.85;0.80;;;17.90;62.40;;;;;;5086578;28;20108;-70
2022/02/26 12:27:58;;;;;;;1.50;0.80;;;17.90;62.40;;;;;;5059730;28;20052;-70
2022/02/26 12:30:24;;;;;;;2.25;0.93;;;18.00;62.20;;;;;;5051034;28;20070;-70
2022/02/26 12:32:51;;;;;;;0.85;0.70;;;18.00;62.30;;;;;;5060187;28;20040;-69
2022/02/26 12:35:17;;;;;;;1.20;0.75;;;18.00;62.20;;;;;;5092728;28;20486;-70
2022/02/26 12:37:44;;;;;;;2.35;1.05;;;18.10;62.20;;;;;;5062382;28;20416;-70
2022/02/26 12:40:14;;;;;;;2.08;0.90;;;18.10;63.10;;;;;;5086378;28;20023;-70
2022/02/26 12:42:42;;;;;;;0.95;0.60;;;18.20;62.00;;;;;;5057928;28;20012;-70
2022/02/26 12:45:09;;;;;;;1.08;0.82;;;18.20;62.00;;;;;;5086941;28;20020;-70
2022/02/26 12:47:35;;;;;;;1.30;0.82;;;18.30;62.00;;;;;;5068819;28;20039;-70